createdAt,value
2018-02-03T00:00:34.861Z,28.08
2018-02-03T00:03:02.343Z,26.48
2018-02-03T00:05:29.930Z,25.17
2018-02-03T00:07:57.420Z,26.12
2018-02-03T00:10:25.309Z,26.50
2018-02-03T00:12:53.268Z,22.98
2018-02-03T00:15:20.764Z,23.10
2018-02-03T00:17:48.239Z,23.48
2018-02-03T00:20:15.735Z,19.73
2018-02-03T00:22:43.220Z,21.20
2018-02-03T00:25:10.719Z,20.67
2018-02-03T00:27:38.197Z,21.50
2018-02-03T00:30:06.173Z,19.70
2018-02-03T00:32:33.744Z,20.42
2018-02-03T00:35:01.248Z,18.02
2018-02-03T00:37:28.726Z,19.85
2018-02-03T00:39:56.224Z,16.45
2018-02-03T00:42:23.708Z,15.98
2018-02-03T00:44:51.209Z,17.33
2018-02-03T00:47:19.084Z,16.55
2018-02-03T00:49:46.984Z,16.87
2018-02-03T00:52:14.463Z,15.27
2018-02-03T00:54:41.972Z,14.73
2018-02-03T00:59:43.896Z,14.40
2018-02-03T01:02:11.375Z,13.90
2018-02-03T01:04:38.860Z,14.85
2018-02-03T01:07:06.364Z,14.15
2018-02-03T01:09:33.838Z,14.25
2018-02-03T01:12:01.352Z,13.07
2018-02-03T01:14:28.827Z,14.00
2018-02-03T01:16:56.722Z,13.18
2018-02-03T01:19:24.602Z,13.07
2018-02-03T01:21:52.589Z,13.80
2018-02-03T01:24:20.072Z,12.27
2018-02-03T01:26:47.613Z,13.23
2018-02-03T01:29:15.496Z,12.57
2018-02-03T01:31:43.439Z,13.98
2018-02-03T01:34:10.900Z,13.38
2018-02-03T01:36:38.391Z,12.82
2018-02-03T01:39:05.880Z,13.82
2018-02-03T01:41:33.380Z,13.45
2018-02-03T01:44:00.860Z,13.85
2018-02-03T01:46:28.356Z,12.10
2018-02-03T01:48:55.835Z,12.50
2018-02-03T01:51:23.340Z,12.10
2018-02-03T01:53:51.224Z,12.37
2018-02-03T01:56:19.128Z,13.70
2018-02-03T01:58:46.611Z,13.60
2018-02-03T02:01:14.121Z,14.30
2018-02-03T02:03:41.612Z,16.30
2018-02-03T02:06:09.510Z,16.80
2018-02-03T02:08:37.055Z,15.55
2018-02-03T02:11:04.547Z,16.40
2018-02-03T02:13:32.032Z,18.50
2018-02-03T02:15:59.536Z,19.05
2018-02-03T02:18:27.015Z,18.25
2018-02-03T02:20:54.587Z,19.27
2018-02-03T02:23:22.067Z,18.67
2018-02-03T02:25:49.553Z,17.50
2018-02-03T02:28:17.052Z,16.92
2018-02-03T02:30:44.586Z,18.15
2018-02-03T02:33:12.092Z,20.42
2018-02-03T02:35:39.571Z,20.00
2018-02-03T02:38:07.209Z,19.83
2018-02-03T02:40:34.692Z,18.77
2018-02-03T02:43:02.620Z,19.62
2018-02-03T02:45:30.104Z,18.50
2018-02-03T02:47:57.604Z,20.15
2018-02-03T02:50:25.480Z,19.25
2018-02-03T02:52:52.972Z,21.35
2018-02-03T02:55:20.462Z,19.70
2018-02-03T02:57:47.965Z,20.17
2018-02-03T03:00:15.448Z,19.77
2018-02-03T03:02:42.948Z,21.52
2018-02-03T03:05:10.828Z,19.55
2018-02-03T03:07:38.718Z,19.98
2018-02-03T03:10:06.204Z,18.90
2018-02-03T03:12:33.704Z,17.87
2018-02-03T03:15:01.188Z,17.33
2018-02-03T03:17:28.679Z,17.65
2018-02-03T03:19:56.560Z,15.77
2018-02-03T03:22:24.453Z,16.80
2018-02-03T03:24:51.994Z,17.90
2018-02-03T03:27:19.500Z,18.20
2018-02-03T03:29:47.032Z,18.65
2018-02-03T03:32:14.621Z,18.25
2018-02-03T03:34:42.521Z,16.95
2018-02-03T03:37:10.025Z,17.58
2018-02-03T03:39:37.508Z,16.60
2018-02-03T03:42:05.011Z,16.80
2018-02-03T03:44:32.491Z,15.32
2018-02-03T03:47:00.396Z,15.95
2018-02-03T03:49:27.888Z,15.00
2018-02-03T03:51:55.376Z,16.80
2018-02-03T03:54:22.884Z,15.70
2018-02-03T03:56:50.767Z,17.27
2018-02-03T03:59:18.664Z,16.73
2018-02-03T04:01:46.138Z,15.25
2018-02-03T04:04:13.643Z,15.48
2018-02-03T04:06:41.118Z,14.87
2018-02-03T04:09:08.720Z,17.30
2018-02-03T04:11:36.608Z,17.05
2018-02-03T04:14:04.499Z,17.75
2018-02-03T04:16:31.979Z,16.65
2018-02-03T04:18:59.472Z,14.23
2018-02-03T04:21:26.956Z,15.68
2018-02-03T04:23:54.560Z,16.23
2018-02-03T04:26:22.131Z,15.32
2018-02-03T04:28:49.623Z,14.55
2018-02-03T04:31:17.588Z,15.40
2018-02-03T04:33:45.576Z,15.30
2018-02-03T04:36:13.547Z,16.10
2018-02-03T04:38:41.048Z,17.62
2018-02-03T04:41:08.586Z,19.48
2018-02-03T04:43:36.092Z,22.90
2018-02-03T04:46:03.572Z,22.73
2018-02-03T04:48:31.104Z,21.40
2018-02-03T04:50:58.589Z,24.30
2018-02-03T04:53:26.487Z,24.05
2018-02-03T04:55:53.976Z,23.45
2018-02-03T04:58:21.495Z,23.42
2018-02-03T05:00:48.975Z,22.92
2018-02-03T05:03:16.881Z,24.12
2018-02-03T05:05:44.364Z,21.15
2018-02-03T05:08:11.864Z,23.70
2018-02-03T05:10:39.356Z,26.15
2018-02-03T05:13:06.928Z,25.35
2018-02-03T05:15:34.433Z,22.92
2018-02-03T05:18:01.916Z,22.27
2018-02-03T05:20:29.419Z,20.20
2018-02-03T05:22:56.903Z,18.77
2018-02-03T05:25:24.405Z,18.75
2018-02-03T05:27:51.887Z,18.62
2018-02-03T05:30:19.379Z,19.87
2018-02-03T05:32:46.855Z,17.75
2018-02-03T05:35:14.356Z,17.62
2018-02-03T05:37:41.838Z,17.02
2018-02-03T05:40:09.732Z,17.17
2018-02-03T05:42:37.610Z,15.55
2018-02-03T05:45:09.124Z,14.75
2018-02-03T05:47:36.607Z,15.43
2018-02-03T05:50:04.107Z,15.48
2018-02-03T05:52:31.989Z,15.55
2018-02-03T05:54:59.879Z,15.65
2018-02-03T05:57:27.839Z,16.35
2018-02-03T05:59:55.411Z,14.87
2018-02-03T06:02:22.900Z,16.58
2018-02-03T06:04:50.796Z,16.75
2018-02-03T06:07:18.276Z,15.57
2018-02-03T06:09:45.776Z,14.40
2018-02-03T06:12:13.250Z,15.70
2018-02-03T06:14:40.756Z,15.52
2018-02-03T06:17:08.633Z,16.33
2018-02-03T06:19:36.528Z,15.82
2018-02-03T06:22:04.071Z,16.02
2018-02-03T06:24:31.577Z,15.77
2018-02-03T06:26:59.060Z,16.15
2018-02-03T06:29:26.591Z,17.42
2018-02-03T06:31:54.467Z,14.98
2018-02-03T06:34:21.972Z,14.52
2018-02-03T06:36:49.461Z,15.07
2018-02-03T06:39:16.952Z,17.55
2018-02-03T06:41:44.451Z,14.55
2018-02-03T06:44:11.936Z,14.48
2018-02-03T06:46:39.832Z,15.85
2018-02-03T06:49:07.312Z,16.05
2018-02-03T06:51:34.806Z,17.65
2018-02-03T06:54:02.288Z,17.00
2018-02-03T06:56:29.783Z,17.08
2018-02-03T06:58:57.268Z,19.30
2018-02-03T07:01:25.167Z,16.80
2018-02-03T07:03:52.652Z,19.17
2018-02-03T07:06:20.152Z,17.62
2018-02-03T07:08:47.631Z,17.65
2018-02-03T07:11:15.131Z,17.87
2018-02-03T07:13:43.002Z,19.45
2018-02-03T07:16:10.900Z,18.65
2018-02-03T07:18:38.384Z,18.45
2018-02-03T07:21:05.892Z,20.75
2018-02-03T07:23:33.377Z,21.62
2018-02-03T07:26:00.870Z,20.40
2018-02-03T07:28:28.748Z,18.62
2018-02-03T07:30:56.638Z,19.12
2018-02-03T07:33:24.521Z,18.10
2018-02-03T07:35:52.024Z,18.00
2018-02-03T07:38:19.513Z,19.00
2018-02-03T07:40:47.003Z,17.80
2018-02-03T07:43:14.484Z,17.95
2018-02-03T07:45:42.384Z,15.32
2018-02-03T07:48:09.932Z,16.90
2018-02-03T07:50:37.824Z,16.35
2018-02-03T07:53:05.704Z,18.30
2018-02-03T07:55:33.677Z,19.27
2018-02-03T07:58:01.643Z,21.90
2018-02-03T08:00:29.157Z,22.08
2018-02-03T08:02:56.640Z,21.27
2018-02-03T08:05:24.124Z,23.00
2018-02-03T08:07:51.624Z,27.15
2018-02-03T08:10:19.204Z,27.95
2018-02-03T08:12:46.708Z,28.58
2018-02-03T08:15:14.182Z,29.50
2018-02-03T08:17:41.684Z,31.48
2018-02-03T08:20:09.163Z,25.92
2018-02-03T08:22:36.863Z,26.20
2018-02-03T08:25:04.349Z,25.85
2018-02-03T08:27:32.312Z,21.77
2018-02-03T08:29:59.878Z,24.40
2018-02-03T08:32:27.382Z,23.27
2018-02-03T08:34:54.860Z,23.30
2018-02-03T08:37:22.364Z,24.00
2018-02-03T08:39:49.859Z,22.83
2018-02-03T08:42:17.358Z,12.93
2018-02-03T08:44:45.320Z,16.80
2018-02-03T08:47:12.829Z,16.98
2018-02-03T08:49:40.311Z,18.10
2018-02-03T08:52:07.812Z,18.17
2018-02-03T08:54:35.304Z,18.17
2018-02-03T08:57:02.807Z,16.62
2018-02-03T08:59:30.380Z,16.60
2018-02-03T09:01:57.880Z,17.25
2018-02-03T09:04:25.361Z,18.12
2018-02-03T09:06:52.950Z,17.50
2018-02-03T09:09:20.533Z,18.20
2018-02-03T09:12:00.056Z,16.30
2018-02-03T09:14:27.530Z,18.02
2018-02-03T09:16:55.132Z,16.50
2018-02-03T09:19:23.016Z,17.37
2018-02-03T09:21:50.916Z,17.52
2018-02-03T09:24:18.396Z,17.98
2018-02-03T09:26:45.891Z,17.27
2018-02-03T09:29:13.395Z,19.80
2018-02-03T09:31:40.962Z,20.10
2018-02-03T09:34:08.544Z,18.67
2018-02-03T09:36:36.028Z,19.30
2018-02-03T09:39:03.924Z,19.60
2018-02-03T09:41:31.468Z,17.70
2018-02-03T09:43:58.963Z,19.90
2018-02-03T09:46:26.439Z,17.75
2018-02-03T09:48:53.947Z,17.12
2018-02-03T09:51:21.423Z,18.92
2018-02-03T09:53:48.924Z,18.37
2018-02-03T09:56:16.816Z,17.27
2018-02-03T09:58:44.706Z,17.23
2018-02-03T10:01:12.182Z,16.55
2018-02-03T10:03:39.684Z,15.55
2018-02-03T10:06:07.164Z,14.55
2018-02-03T10:08:34.666Z,16.40
2018-02-03T10:11:02.585Z,17.67
2018-02-03T10:13:30.536Z,17.75
2018-02-03T10:15:58.513Z,19.00
2018-02-03T10:18:26.412Z,18.50
2018-02-03T10:20:53.887Z,21.40
2018-02-03T10:23:21.388Z,17.40
2018-02-03T10:25:48.867Z,14.75
2018-02-03T10:28:16.364Z,14.60
2018-02-03T10:30:43.843Z,14.25
2018-02-03T10:33:11.731Z,16.12
2018-02-03T10:35:39.611Z,16.05
2018-02-03T10:38:07.503Z,14.30
2018-02-03T10:40:35.044Z,14.48
2018-02-03T10:43:02.582Z,14.50
2018-02-03T10:45:30.080Z,14.85
2018-02-03T10:47:57.656Z,13.90
2018-02-03T10:50:25.545Z,15.07
2018-02-03T10:52:53.514Z,17.12
2018-02-03T10:55:20.990Z,14.35
2018-02-03T10:57:48.470Z,14.70
2018-02-03T11:00:16.363Z,13.98
2018-02-03T11:02:43.838Z,13.10
2018-02-03T11:05:11.335Z,14.27
2018-02-03T11:07:38.819Z,15.10
2018-02-03T11:10:06.324Z,16.65
2018-02-03T11:12:34.204Z,17.02
2018-02-03T11:15:02.111Z,16.50
2018-02-03T11:17:29.596Z,17.35
2018-02-03T11:19:57.110Z,17.40
2018-02-03T11:22:24.592Z,15.52
2018-02-03T11:24:52.096Z,14.98
2018-02-03T11:27:19.580Z,15.15
2018-02-03T11:29:47.091Z,16.12
2018-02-03T11:32:14.571Z,15.95
2018-02-03T11:34:42.156Z,16.95
2018-02-03T11:37:10.042Z,15.30
2018-02-03T11:39:37.936Z,16.33
2018-02-03T11:42:05.428Z,14.25
2018-02-03T11:44:32.941Z,14.07
2018-02-03T11:47:00.520Z,17.08
2018-02-03T11:49:28.024Z,15.10
2018-02-03T11:51:55.508Z,16.12
2018-02-03T11:54:23.009Z,14.35
2018-02-03T11:56:50.499Z,16.62
2018-02-03T11:59:18.071Z,14.40
2018-02-03T12:01:45.556Z,12.65
2018-02-03T12:04:13.450Z,51.63
2018-02-03T12:06:40.932Z,14.55
2018-02-03T12:09:08.431Z,16.62
2018-02-03T12:11:35.908Z,15.20
2018-02-03T12:14:03.412Z,13.30
2018-02-03T12:16:31.388Z,14.82
2018-02-03T12:18:58.887Z,9.70
2018-02-03T12:21:26.369Z,10.85
2018-02-03T12:23:53.902Z,7.87
2018-02-03T12:26:22.305Z,6.43
2018-02-03T12:28:50.180Z,6.65
2018-02-03T12:31:18.071Z,9.60
2018-02-03T12:33:45.989Z,12.75
2018-02-03T12:36:13.484Z,6.65
2018-02-03T12:38:40.968Z,18.58
2018-02-03T12:41:08.459Z,8.05
2018-02-03T12:43:36.428Z,8.05
2018-02-03T12:46:03.928Z,7.30
2018-02-03T12:48:31.408Z,9.13
2018-02-03T12:50:58.930Z,9.32
2018-02-03T12:53:26.512Z,15.85
2018-02-03T12:55:54.012Z,17.50
2018-02-03T12:58:21.496Z,14.98
2018-02-03T13:00:49.032Z,13.98
2018-02-03T13:03:16.908Z,10.68
2018-02-03T13:05:44.800Z,7.05
2018-02-03T13:08:12.672Z,5.40
2018-02-03T13:10:40.565Z,4.55
2018-02-03T13:13:08.064Z,6.43
2018-02-03T13:15:35.560Z,6.15
2018-02-03T13:18:03.036Z,3.70
2018-02-03T13:20:30.533Z,3.62
2018-02-03T13:22:58.013Z,3.55
2018-02-03T13:25:25.561Z,3.58
2018-02-03T13:27:53.435Z,3.10
2018-02-03T13:30:20.933Z,2.83
2018-02-03T13:32:48.804Z,4.18
2018-02-03T13:35:16.780Z,2.85
2018-02-03T13:37:44.647Z,2.75
2018-02-03T13:40:12.392Z,3.55
2018-02-03T13:42:39.876Z,3.85
2018-02-03T13:45:07.356Z,3.20
2018-02-03T13:47:34.943Z,4.47
2018-02-03T13:50:02.516Z,2.72
2018-02-03T13:52:30.017Z,3.00
2018-02-03T13:54:57.491Z,3.28
2018-02-03T13:57:24.980Z,4.12
2018-02-03T13:59:52.456Z,4.45
2018-02-03T14:02:20.330Z,4.40
2018-02-03T14:04:47.812Z,3.50
2018-02-03T14:07:15.323Z,4.78
2018-02-03T14:09:43.196Z,5.10
2018-02-03T14:12:10.686Z,4.82
2018-02-03T14:14:38.556Z,5.60
2018-02-03T14:17:06.531Z,4.95
2018-02-03T14:19:34.407Z,5.55
2018-02-03T14:22:01.984Z,7.65
2018-02-03T14:24:35.520Z,5.82
2018-02-03T14:27:03.012Z,3.95
2018-02-03T14:29:30.491Z,4.32
2018-02-03T14:31:58.024Z,4.10
2018-02-03T14:34:25.896Z,4.18
2018-02-03T14:36:53.793Z,5.05
2018-02-03T14:39:21.341Z,4.90
2018-02-03T14:41:49.320Z,5.30
2018-02-03T14:44:16.887Z,5.43
2018-02-03T14:46:44.385Z,5.68
2018-02-03T14:49:11.868Z,5.75
2018-02-03T14:51:39.369Z,6.25
2018-02-03T14:54:06.856Z,7.20
2018-02-03T14:56:34.357Z,7.50
2018-02-03T14:59:02.227Z,6.62
2018-02-03T15:01:30.578Z,8.68
2018-02-03T15:03:58.060Z,7.47
2018-02-03T15:06:25.656Z,6.70
2018-02-03T15:08:53.130Z,7.20
2018-02-03T15:11:20.628Z,7.72
2018-02-03T15:13:48.108Z,7.15
2018-02-03T15:16:15.609Z,7.80
2018-02-03T15:18:43.107Z,8.00
2018-02-03T15:21:10.588Z,8.00
2018-02-03T15:23:38.481Z,7.87
2018-02-03T15:26:05.972Z,9.65
2018-02-03T15:28:33.500Z,8.70
2018-02-03T15:31:00.980Z,8.38
2018-02-03T15:33:28.471Z,8.65
2018-02-03T15:35:55.942Z,8.48
2018-02-03T15:38:23.474Z,7.80
2018-02-03T15:40:50.950Z,8.48
2018-02-03T15:43:18.449Z,8.07
2018-02-03T15:45:45.932Z,8.52
2018-02-03T15:48:13.422Z,8.60
2018-02-03T15:50:40.904Z,9.75
2018-02-03T15:53:08.400Z,9.30
2018-02-03T15:55:35.871Z,8.90
2018-02-03T15:58:03.363Z,10.30
2018-02-03T16:00:31.243Z,9.95
2018-02-03T16:02:59.151Z,9.38
2018-02-03T16:05:26.675Z,8.80
2018-02-03T16:07:54.172Z,10.20
2018-02-03T16:10:21.710Z,10.40
2018-02-03T16:12:49.209Z,8.20
2018-02-03T16:15:17.088Z,8.25
2018-02-03T16:17:45.043Z,8.45
2018-02-03T16:20:12.524Z,9.43
2018-02-03T16:22:40.051Z,8.13
2018-02-03T16:25:07.528Z,7.90
2018-02-03T16:27:35.027Z,8.40
2018-02-03T16:30:02.521Z,8.55
2018-02-03T16:32:30.072Z,9.02
2018-02-03T16:34:57.547Z,9.38
2018-02-03T16:37:25.421Z,7.87
2018-02-03T16:39:52.917Z,8.75
2018-02-03T16:42:20.792Z,7.55
2018-02-03T16:44:48.699Z,8.23
2018-02-03T16:47:16.183Z,8.07
2018-02-03T16:49:43.680Z,8.23
2018-02-03T16:52:11.154Z,7.90
2018-02-03T16:54:38.743Z,10.68
2018-02-03T16:57:06.624Z,12.70
2018-02-03T16:59:34.139Z,25.48
2018-02-03T17:02:01.661Z,26.12
2018-02-03T17:04:29.259Z,9.90
2018-02-03T17:06:56.739Z,10.73
2018-02-03T17:09:24.279Z,9.43
2018-02-03T17:11:51.741Z,9.30
2018-02-03T17:14:19.242Z,8.80
2018-02-03T17:16:46.727Z,8.90
2018-02-03T17:19:14.272Z,10.18
2018-02-03T17:21:42.234Z,8.95
2018-02-03T17:24:09.732Z,8.15
2018-02-03T17:26:37.212Z,8.82
2018-02-03T17:29:04.708Z,8.80
2018-02-03T17:31:32.192Z,10.23
2018-02-03T17:33:59.713Z,9.70
2018-02-03T17:36:33.496Z,9.98
2018-02-03T17:39:03.936Z,8.68
2018-02-03T17:41:31.424Z,10.50
2018-02-03T17:43:59.436Z,9.57
2018-02-03T17:46:32.563Z,10.38
2018-02-03T17:49:00.078Z,9.50
2018-02-03T17:51:27.648Z,9.63
2018-02-03T17:53:55.220Z,8.80
2018-02-03T17:56:28.477Z,11.45
2018-02-03T17:58:55.966Z,9.70
2018-02-03T18:01:23.495Z,10.38
2018-02-03T18:03:50.996Z,10.45
2018-02-03T18:06:18.500Z,10.50
2018-02-03T18:08:46.000Z,12.00
2018-02-03T18:11:13.916Z,10.57
2018-02-03T18:13:41.395Z,10.48
2018-02-03T18:16:08.909Z,10.45
2018-02-03T18:18:36.889Z,13.15
2018-02-03T18:21:04.856Z,10.57
2018-02-03T18:23:32.340Z,11.68
2018-02-03T18:26:00.228Z,10.85
2018-02-03T18:28:28.111Z,10.93
2018-02-03T18:30:55.999Z,10.30
2018-02-03T18:33:23.839Z,11.90
2018-02-03T18:35:51.418Z,11.50
2018-02-03T18:38:18.895Z,10.30
2018-02-03T18:40:46.396Z,10.35
2018-02-03T18:43:13.887Z,11.25
2018-02-03T18:45:46.340Z,11.30
2018-02-03T18:48:14.234Z,10.73
2018-02-03T18:50:41.780Z,9.30
2018-02-03T18:53:09.255Z,10.77
2018-02-03T18:55:37.149Z,9.85
2018-02-03T18:58:04.626Z,10.80
2018-02-03T19:00:32.127Z,13.00
2018-02-03T19:02:59.603Z,11.15
2018-02-03T19:05:27.103Z,9.43
2018-02-03T19:07:54.590Z,10.93
2018-02-03T19:10:22.563Z,10.88
2018-02-03T19:12:50.048Z,10.82
2018-02-03T19:15:17.961Z,10.90
2018-02-03T19:17:45.509Z,10.77
2018-02-03T19:20:13.002Z,10.95
2018-02-03T19:22:40.508Z,10.75
2018-02-03T19:25:08.104Z,11.25
2018-02-03T19:27:35.994Z,10.75
2018-02-03T19:30:03.985Z,10.60
2018-02-03T19:32:31.529Z,10.32
2018-02-03T19:34:59.122Z,10.23
2018-02-03T19:37:26.675Z,10.43
2018-02-03T19:39:54.239Z,12.07
2018-02-03T19:42:21.730Z,11.00
2018-02-03T19:44:49.608Z,12.30
2018-02-03T19:47:17.503Z,10.38
2018-02-03T19:49:45.053Z,11.65
2018-02-03T19:52:12.952Z,10.60
2018-02-03T19:54:40.460Z,11.38
2018-02-03T19:57:08.004Z,11.70
2018-02-03T19:59:35.504Z,12.15
2018-02-03T20:02:02.995Z,12.95
2018-02-03T20:04:30.555Z,12.05
2018-02-03T20:06:58.156Z,12.07
2018-02-03T20:09:25.732Z,10.73
2018-02-03T20:11:53.228Z,13.05
2018-02-03T20:14:20.724Z,11.93
2018-02-03T20:16:48.224Z,12.63
2018-02-03T20:19:15.698Z,12.70
2018-02-03T20:21:43.328Z,13.40
2018-02-03T20:24:10.820Z,13.30
2018-02-03T20:26:38.591Z,12.10
2018-02-03T20:29:06.070Z,13.60
2018-02-03T20:31:33.706Z,13.68
2018-02-03T20:34:01.182Z,13.98
2018-02-03T20:36:28.836Z,14.35
2018-02-03T20:38:56.329Z,13.30
2018-02-03T20:41:23.930Z,12.88
2018-02-03T20:43:51.416Z,11.48
2018-02-03T20:46:19.036Z,12.07
2018-02-03T20:48:46.551Z,13.27
2018-02-03T20:51:14.052Z,12.07
2018-02-03T20:53:41.575Z,12.85
2018-02-03T20:56:09.092Z,12.32
2018-02-03T20:58:36.670Z,12.60
2018-02-03T21:01:04.576Z,11.70
2018-02-03T21:03:32.120Z,12.27
2018-02-03T21:05:59.751Z,12.70
2018-02-03T21:08:27.252Z,13.18
2018-02-03T21:10:54.862Z,14.52
2018-02-03T21:13:22.408Z,12.98
2018-02-03T21:15:50.009Z,13.70
2018-02-03T21:18:17.552Z,13.35
2018-02-03T21:20:45.042Z,13.80
2018-02-03T21:23:12.592Z,13.45
2018-02-03T21:25:40.084Z,13.77
2018-02-03T21:28:07.584Z,13.25
2018-02-03T21:30:35.072Z,13.73
2018-02-03T21:33:02.573Z,12.98
2018-02-03T21:35:30.064Z,13.73
2018-02-03T21:37:58.024Z,14.00
2018-02-03T21:40:25.512Z,14.55
2018-02-03T21:42:53.523Z,16.48
2018-02-03T21:45:21.096Z,14.32
2018-02-03T21:47:48.596Z,14.13
2018-02-03T21:50:16.084Z,16.52
2018-02-03T21:52:43.667Z,16.67
2018-02-03T21:55:11.245Z,16.75
2018-02-03T21:57:39.148Z,19.50
2018-02-03T22:00:06.628Z,18.60
2018-02-03T22:02:34.128Z,18.27
2018-02-03T22:05:01.607Z,21.98
2018-02-03T22:07:29.195Z,19.45
2018-02-03T22:09:56.679Z,20.42
2018-02-03T22:12:24.596Z,20.10
2018-02-03T22:14:52.075Z,22.20
2018-02-03T22:17:19.584Z,22.48
2018-02-03T22:19:47.080Z,22.65
2018-02-03T22:22:15.053Z,21.02
2018-02-03T22:24:42.927Z,24.00
2018-02-03T22:27:10.436Z,24.45
2018-02-03T22:29:37.918Z,23.50
2018-02-03T22:32:05.430Z,25.50
2018-02-03T22:34:33.012Z,23.58
2018-02-03T22:37:00.487Z,23.85
2018-02-03T22:39:28.392Z,25.27
2018-02-03T22:41:56.036Z,25.40
2018-02-03T22:44:23.606Z,26.50
2018-02-03T22:46:51.092Z,25.77
2018-02-03T22:49:18.982Z,25.17
2018-02-03T22:51:46.468Z,25.00
2018-02-03T22:54:13.968Z,26.27
2018-02-03T22:56:41.451Z,26.65
2018-02-03T22:59:09.352Z,26.40
2018-02-03T23:01:37.240Z,25.52
2018-02-03T23:04:05.136Z,30.23
2018-02-03T23:06:32.619Z,30.00
2018-02-03T23:09:00.148Z,28.62
2018-02-03T23:11:27.634Z,28.92
2018-02-03T23:13:55.528Z,30.17
2018-02-03T23:16:23.020Z,32.53
2018-02-03T23:18:50.669Z,31.67
2018-02-03T23:21:18.152Z,30.17
2018-02-03T23:23:45.651Z,31.83
2018-02-03T23:26:13.131Z,31.25
2018-02-03T23:28:40.736Z,30.75
2018-02-03T23:31:08.611Z,32.53
2018-02-03T23:33:36.112Z,30.62
2018-02-03T23:36:03.596Z,30.15
2018-02-03T23:38:31.086Z,29.17
2018-02-03T23:40:58.567Z,29.70
2018-02-03T23:43:26.063Z,32.30
2018-02-03T23:45:53.939Z,30.60
2018-02-03T23:48:21.424Z,30.27
2018-02-03T23:50:49.316Z,29.67
2018-02-03T23:53:16.795Z,30.45
2018-02-03T23:55:44.295Z,27.80
2018-02-03T23:58:11.779Z,30.35
